Onweer radar more information blitzortung!


Regen radar more information rain snow radar


Meteo Sauwerd

Weerstation Alkmaar Centrum

Weerstation Luyksgestel

Website Noardburgum

Weerstation Noordbergum



Extreme hitte van: 25-08-2019 01:00 tot: 27-08-2019 01:00 waarschuwing voor: Extreme hitte niveau: Geel info button

METAR rapporten vliegvelden

   
EHLW - Leeuwarden Rnlaf, Netherlands
Afstand tot: W 17 km
Gewijzigd: 25-08-2019 02:25
Helder  
Helder  
   Wind: Oosten 11.1 km/h
Wind: Oosten 11.1 km/h
Temperatuur: 17°C
Dauwpunt: 13°C
Vochtigheid: 77%
Barometer: 1019 hPa
Bewolking: Helder
Zicht: meer dan 10 km
Bewolking: Helder
EHLW 250025Z AUTO 08006KT 020V150 9999 NCD 17/13 Q1019 BLU
EHMA - Awg-1 Sea, Netherlands
Afstand tot: N 31 km
Gewijzigd: 25-08-2019 02:25
Helder  
Helder  
   Wind: OZO 22.2 km/h
Wind: OZO 22.2 km/h
Temperatuur: 22°C
Dauwpunt: 17°C
Vochtigheid: 73%
Barometer: 1020 hPa
Bewolking: Helder
Bewolking: Helder
EHMA 250025Z AUTO 11012KT //// // NCD 22/17 Q1020 RE// W///H///
EHGG - Groningen/Eelde, Netherlands
Afstand tot: OZO 40 km
Gewijzigd: 25-08-2019 02:25
Helder  
Helder  
   Wind: Oosten 9.3 km/h
Wind: Oosten 9.3 km/h
Temperatuur: 15°C
Dauwpunt: 13°C
Vochtigheid: 88%
Barometer: 1019 hPa
Bewolking: Helder
Zicht: meer dan 10 km
Bewolking: Helder
EHGG 250025Z AUTO 08005KT 9999 NCD 15/13 Q1019
EHVL - Vlieland Island, Netherlands
Afstand tot: W 72 km
Gewijzigd: 25-08-2019 02:25
Helder  
Helder  
   Wind: Oosten 13 km/h
Wind: Oosten 13 km/h
Temperatuur: 19°C
Dauwpunt: 17°C
Vochtigheid: 88%
Barometer: 1019 hPa
Bewolking: Helder
Zicht: meer dan 10 km
Bewolking: Helder
EHVL 250025Z AUTO 08007KT 9999 NCD 19/17 Q1019 BLU
EHMG - L9-Ff-1 Sea, Netherlands
Afstand tot: WNW 81 km
Gewijzigd: 25-08-2019 02:25
Helder  
Helder  
   Wind: OZO 31.5 km/h
Wind: OZO 31.5 km/h
Temperatuur: 21°C
Dauwpunt: 18°C
Vochtigheid: 83%
Barometer: 1020 hPa
Bewolking: Helder
Zicht: meer dan 10 km
Bewolking: Helder
EHMG 250025Z AUTO 12017KT 9999 NCD 21/18 Q1020 W///H///
EHKD - De Kooy (navy), Netherlands
Afstand tot: WZW 89 km
Gewijzigd: 25-08-2019 02:25
Helder  
Helder  
   Wind: Oosten 9.3 km/h
Wind: Oosten 9.3 km/h
Temperatuur: 18°C
Dauwpunt: 16°C
Vochtigheid: 88%
Barometer: 1019 hPa
Bewolking: Helder
Zicht: meer dan 10 km
Bewolking: Helder
EHKD 250025Z AUTO 08005KT 9999 NCD 18/16 Q1019 BLU

Script ontwikkeld door  Saratoga-weather.org Aangepast voor de template door  Weerstation Leuven

U vindt ons ook hier:

Het Weer Aktueel

UK Metoffice

European Weather Network

Weather Underground

AWEKAS

Citizen Weather Observer Program (CWOP)

HAMweather, WeatherForYou, PWS Weather

Apparatuur in gebruik:

Weerstation
Davis Vantage pro 2

Weerprogramma
Meteobridge

Weercomputer
TP-Link TL-WR703N

Webleverancier
Versio

Davis Vantage pro 2

Meteobridge

TP-Link TL-WR703N

Versio